Time;durP1;ratioP1;P1;durP2;ratioP2;P2;SDS_P1;SDS_P2;PMS_P1;PMS_P2;Temp;Humidity;BMP_temperature;BMP_pressure;BME280_temperature;BME280_humidity;BME280_pressure;Samples;Min_cycle;Max_cycle;Signal;HPM_P1;HPM_P2
2023/07/19 00:00:36;;;;;;;8.77;2.45;;;;;;;16.34;74.24;101390.63;4989885;28;20028;-63
2023/07/19 00:03:02;;;;;;;2.97;2.35;;;;;;;16.43;74.34;101386.75;4987406;28;20019;-63
2023/07/19 00:05:28;;;;;;;7.60;2.60;;;;;;;16.51;74.40;101384.97;4988710;28;20587;-62
2023/07/19 00:07:53;;;;;;;7.95;3.28;;;;;;;16.57;74.28;101384.19;4987154;28;20023;-63
2023/07/19 00:10:18;;;;;;;8.05;3.40;;;;;;;16.58;73.93;101375.09;4990308;28;20455;-62
2023/07/19 00:12:44;;;;;;;4.60;2.88;;;;;;;16.57;73.80;101373.44;4984194;28;20018;-62
2023/07/19 00:15:09;;;;;;;4.28;3.00;;;;;;;16.53;74.43;101366.81;4990465;28;20369;-62
2023/07/19 00:17:34;;;;;;;5.50;2.95;;;;;;;16.57;74.55;101365.41;4988125;28;20046;-62
2023/07/19 00:20:00;;;;;;;5.78;3.00;;;;;;;16.39;74.76;101369.41;4986293;28;20029;-62
2023/07/19 00:22:25;;;;;;;8.55;3.13;;;;;;;16.30;74.69;101367.91;4988528;28;20603;-63
2023/07/19 00:24:51;;;;;;;5.15;2.90;;;;;;;16.30;74.93;101359.88;4976815;28;20093;-62
2023/07/19 00:27:16;;;;;;;9.60;3.22;;;;;;;16.34;74.67;101362.97;4981014;28;20031;-63
2023/07/19 00:29:41;;;;;;;8.20;3.40;;;;;;;16.33;75.21;101361.31;4989730;28;20033;-62
2023/07/19 00:32:07;;;;;;;7.47;3.22;;;;;;;16.40;75.25;101356.84;4984357;28;20030;-62
2023/07/19 00:34:32;;;;;;;6.45;3.10;;;;;;;16.40;75.18;101351.47;4988086;28;20023;-62
2023/07/19 00:36:59;;;;;;;6.45;3.05;;;;;;;16.43;75.42;101351.91;4984333;28;20045;-62
2023/07/19 00:39:24;;;;;;;6.50;3.13;;;;;;;16.49;75.16;101355.69;4987407;28;20113;-62
2023/07/19 00:41:49;;;;;;;7.53;3.10;;;;;;;16.37;75.56;101349.19;4982626;28;20459;-62
2023/07/19 00:44:14;;;;;;;8.25;3.33;;;;;;;16.43;75.60;101340.34;4988161;28;20030;-63
2023/07/19 00:46:40;;;;;;;8.48;2.95;;;;;;;16.47;75.69;101338.94;4984248;28;20022;-63
2023/07/19 00:49:06;;;;;;;5.57;3.28;;;;;;;16.49;75.78;101328.03;4985003;28;20061;-62
2023/07/19 00:51:31;;;;;;;8.27;3.20;;;;;;;16.47;75.72;101330.06;4987365;28;20042;-63
2023/07/19 00:53:56;;;;;;;9.02;3.13;;;;;;;16.45;75.78;101332.09;4989350;28;20018;-62
2023/07/19 00:56:23;;;;;;;5.18;3.20;;;;;;;16.40;75.75;101330.03;4986108;28;20053;-62
2023/07/19 00:58:53;;;;;;;6.03;3.58;;;;;;;16.41;75.40;101323.63;4988833;28;20138;-62
2023/07/19 01:01:21;;;;;;;6.05;3.20;;;;;;;16.43;75.56;101327.78;4987204;28;20049;-63
2023/07/19 01:03:47;;;;;;;6.38;3.30;;;;;;;16.41;75.71;101318.28;4989383;28;20261;-62
2023/07/19 01:06:12;;;;;;;6.28;3.45;;;;;;;16.41;75.81;101320.97;4989286;28;20541;-62
2023/07/19 01:08:38;;;;;;;6.47;3.40;;;;;;;16.42;75.54;101323.44;4988120;28;20034;-63
2023/07/19 01:11:04;;;;;;;8.02;3.55;;;;;;;16.41;75.87;101321.78;4988964;28;20034;-62
2023/07/19 01:13:29;;;;;;;6.22;3.00;;;;;;;16.26;75.49;101331.81;4988486;28;20026;-63
2023/07/19 01:15:54;;;;;;;6.68;3.40;;;;;;;16.11;75.35;101334.56;4979948;28;21591;-62
2023/07/19 01:18:20;;;;;;;5.68;3.10;;;;;;;15.98;75.52;101329.13;4984728;28;20022;-62
2023/07/19 01:20:46;;;;;;;7.07;3.75;;;;;;;15.98;75.99;101328.28;4981336;28;20104;-62
2023/07/19 01:23:11;;;;;;;6.82;3.40;;;;;;;15.85;76.36;101328.16;4983814;28;20023;-62
2023/07/19 01:25:37;;;;;;;5.53;2.97;;;;;;;15.79;76.59;101324.41;4983582;28;20504;-63
2023/07/19 01:28:03;;;;;;;4.85;3.10;;;;;;;15.58;76.57;101322.56;4986928;28;20033;-62
2023/07/19 01:30:28;;;;;;;5.80;2.83;;;;;;;15.46;76.51;101329.44;4983335;28;20109;-63
2023/07/19 01:32:53;;;;;;;8.27;3.45;;;;;;;15.29;76.85;101319.97;4981130;28;20057;-62
2023/07/19 01:35:19;;;;;;;4.78;3.08;;;;;;;15.21;77.15;101318.25;4982636;28;20081;-62
2023/07/19 01:37:45;;;;;;;6.53;3.15;;;;;;;15.14;77.85;101310.16;4986183;28;20026;-62
2023/07/19 01:40:11;;;;;;;4.75;3.30;;;;;;;15.12;78.45;101308.69;4980457;28;20539;-62
2023/07/19 01:42:37;;;;;;;7.85;4.05;;;;;;;15.23;78.46;101315.38;4986513;28;20038;-63
2023/07/19 01:45:02;;;;;;;7.38;3.10;;;;;;;15.17;78.74;101311.63;4986497;28;20229;-62
2023/07/19 01:47:28;;;;;;;6.13;3.65;;;;;;;15.19;78.98;101318.44;4987589;28;20026;-62
2023/07/19 01:49:54;;;;;;;8.65;3.55;;;;;;;15.17;79.14;101316.97;4986406;28;20014;-63
2023/07/19 01:52:19;;;;;;;5.93;3.42;;;;;;;15.21;79.41;101325.44;4986516;28;20026;-62
2023/07/19 01:54:44;;;;;;;6.70;3.40;;;;;;;15.15;79.33;101319.84;4982100;28;20034;-62
2023/07/19 01:57:11;;;;;;;8.23;3.67;;;;;;;15.15;79.82;101317.16;4982025;28;20022;-62
2023/07/19 01:59:36;;;;;;;7.43;3.30;;;;;;;15.17;79.59;101312.47;4986902;28;20061;-62
2023/07/19 02:02:01;;;;;;;5.00;3.38;;;;;;;15.14;79.53;101312.00;4987916;28;20053;-62
2023/07/19 02:04:27;;;;;;;5.82;3.25;;;;;;;15.15;79.76;101305.63;4988521;28;20029;-62
2023/07/19 02:06:53;;;;;;;7.13;3.90;;;;;;;15.12;79.96;101309.53;4988371;28;20068;-62
2023/07/19 02:09:18;;;;;;;6.78;3.30;;;;;;;15.06;79.79;101307.59;4986319;28;21328;-62
2023/07/19 02:11:44;;;;;;;6.22;3.17;;;;;;;14.97;79.67;101305.22;4987261;28;20120;-62
2023/07/19 02:14:10;;;;;;;7.00;3.28;;;;;;;14.96;80.31;101308.91;4985181;28;20057;-62
2023/07/19 02:16:35;;;;;;;6.38;3.30;;;;;;;14.93;80.73;101303.94;4985660;28;20018;-62
2023/07/19 02:19:03;;;;;;;4.82;3.35;;;;;;;14.93;80.84;101306.59;4985061;28;20077;-62
2023/07/19 02:21:28;;;;;;;6.65;3.67;;;;;;;14.88;81.05;101302.66;4985175;28;20515;-62
2023/07/19 02:23:54;;;;;;;9.52;3.38;;;;;;;14.88;81.03;101302.66;4988760;28;20033;-62
2023/07/19 02:26:19;;;;;;;7.63;3.92;;;;;;;14.94;81.51;101305.59;4987141;28;20030;-62
2023/07/19 02:28:45;;;;;;;6.70;3.55;;;;;;;14.90;81.17;101302.47;4986124;28;20026;-63
2023/07/19 02:31:10;;;;;;;6.30;3.78;;;;;;;14.89;81.58;101303.50;4987260;28;20022;-62
2023/07/19 02:33:35;;;;;;;6.43;3.78;;;;;;;14.86;81.61;101301.19;4987003;28;20033;-62
2023/07/19 02:36:01;;;;;;;5.95;3.65;;;;;;;14.81;81.39;101292.91;4987108;28;20157;-62
2023/07/19 02:38:26;;;;;;;7.93;3.85;;;;;;;14.84;81.64;101301.38;4984795;28;20037;-61
2023/07/19 02:40:57;;;;;;;5.10;3.40;;;;;;;14.79;81.43;101303.78;4987425;28;20038;-62
2023/07/19 02:43:23;;;;;;;5.65;3.88;;;;;;;14.72;81.29;101307.38;4985987;28;20050;-62
2023/07/19 02:45:48;;;;;;;4.90;3.53;;;;;;;14.65;81.87;101301.13;4988033;28;20053;-62
2023/07/19 02:48:13;;;;;;;5.53;3.50;;;;;;;14.59;82.07;101307.22;4988015;28;20038;-62
2023/07/19 02:50:44;;;;;;;5.60;3.63;;;;;;;14.60;82.48;101306.19;4987027;28;20026;-62
2023/07/19 02:53:09;;;;;;;8.68;3.60;;;;;;;14.56;82.62;101305.75;4987609;28;20034;-62
2023/07/19 02:55:34;;;;;;;7.18;3.85;;;;;;;14.54;82.48;101305.94;4989141;28;20026;-62
2023/07/19 02:58:00;;;;;;;8.20;3.70;;;;;;;14.63;83.08;101311.16;4990569;28;20034;-62
2023/07/19 03:00:25;;;;;;;6.18;3.55;;;;;;;14.69;83.27;101297.06;4990144;28;20517;-62
2023/07/19 03:02:53;;;;;;;7.10;3.92;;;;;;;14.72;83.24;101307.38;4982563;28;20042;-62
2023/07/19 03:05:18;;;;;;;5.93;4.18;;;;;;;14.73;83.49;101299.16;4990619;28;20064;-62
2023/07/19 03:07:44;;;;;;;5.93;4.03;;;;;;;14.81;83.40;101292.91;4981622;28;20127;-62
2023/07/19 03:10:10;;;;;;;7.15;4.30;;;;;;;14.84;83.65;101304.06;4988827;28;20022;-62
2023/07/19 03:12:35;;;;;;;7.15;4.20;;;;;;;14.88;83.93;101299.97;4980605;28;20482;-62
2023/07/19 03:15:00;;;;;;;7.88;4.30;;;;;;;14.92;84.08;101296.94;4985273;28;20030;-62
2023/07/19 03:17:25;;;;;;;7.80;4.45;;;;;;;14.97;83.84;101305.22;4989844;28;20025;-62
2023/07/19 03:19:51;;;;;;;8.18;4.50;;;;;;;14.95;83.94;101297.38;4990919;28;20108;-62
2023/07/19 03:22:16;;;;;;;7.93;4.50;;;;;;;14.96;84.33;101299.03;4984621;28;20022;-62
2023/07/19 03:24:41;;;;;;;4.75;3.80;;;;;;;14.98;84.56;101299.69;4982627;28;20098;-62
2023/07/19 03:27:06;;;;;;;11.75;4.38;;;;;;;15.04;84.45;101298.94;4989092;28;20675;-62
2023/07/19 03:29:32;;;;;;;4.80;4.22;;;;;;;15.09;84.29;101311.75;4990203;28;20050;-62
2023/07/19 03:31:57;;;;;;;8.27;4.63;;;;;;;15.11;84.60;101307.03;4988397;28;20018;-62
2023/07/19 03:34:22;;;;;;;10.48;4.68;;;;;;;15.13;84.32;101316.53;4987459;28;20584;-63
2023/07/19 03:36:47;;;;;;;9.77;4.63;;;;;;;15.09;84.12;101309.06;4987883;28;20022;-62
2023/07/19 03:39:13;;;;;;;9.23;4.40;;;;;;;15.09;84.47;101309.06;4984938;28;20045;-63
2023/07/19 03:41:38;;;;;;;9.32;4.53;;;;;;;15.15;84.04;101311.00;4990462;28;20022;-62
2023/07/19 03:44:04;;;;;;;10.30;4.45;;;;;;;15.10;84.18;101306.22;4991646;28;20023;-62
2023/07/19 03:46:29;;;;;;;8.43;4.80;;;;;;;15.10;84.24;101311.56;4984489;28;20022;-62
2023/07/19 03:48:54;;;;;;;7.43;4.68;;;;;;;15.12;84.16;101309.53;4988996;28;20022;-62
2023/07/19 03:51:20;;;;;;;5.35;4.32;;;;;;;15.10;84.10;101306.22;4991210;28;20054;-62
2023/07/19 03:53:45;;;;;;;6.68;4.30;;;;;;;15.09;84.12;101309.91;4990080;28;20041;-62
2023/07/19 03:56:10;;;;;;;9.30;4.43;;;;;;;15.19;84.61;101313.09;4982808;28;20169;-62
2023/07/19 03:58:38;;;;;;;7.05;4.25;;;;;;;15.25;83.95;101308.81;4988945;28;20050;-62
2023/07/19 04:01:04;;;;;;;8.93;5.03;;;;;;;15.31;84.26;101309.91;4987108;28;20022;-62
2023/07/19 04:03:29;;;;;;;8.30;4.82;;;;;;;15.32;83.91;101308.88;4990439;28;20025;-62
2023/07/19 04:05:57;;;;;;;6.85;4.50;;;;;;;15.32;84.20;101303.53;4989774;28;20029;-62
2023/07/19 04:08:22;;;;;;;10.20;5.15;;;;;;;15.28;83.99;101302.25;4989746;28;20068;-62
2023/07/19 04:10:47;;;;;;;10.13;4.95;;;;;;;15.42;83.78;101304.06;4987319;28;20519;-62
2023/07/19 04:13:13;;;;;;;8.88;4.72;;;;;;;15.48;83.69;101298.78;4991196;28;20030;-62
2023/07/19 04:15:39;;;;;;;9.18;5.15;;;;;;;15.50;83.32;101307.44;4989155;28;20104;-62
2023/07/19 04:18:04;;;;;;;7.88;5.28;;;;;;;15.54;83.28;101299.03;4989158;28;20107;-62
2023/07/19 04:20:30;;;;;;;10.30;5.28;;;;;;;15.53;83.17;101308.91;4989469;28;20118;-62
2023/07/19 04:22:55;;;;;;;8.82;4.97;;;;;;;15.52;83.41;101304.56;4983990;28;20038;-62
2023/07/19 04:25:21;;;;;;;8.57;5.20;;;;;;;15.53;83.33;101300.88;4984143;28;20639;-62
2023/07/19 04:27:47;;;;;;;8.32;5.25;;;;;;;15.55;83.02;101306.84;4990305;28;20010;-62
2023/07/19 04:30:13;;;;;;;8.85;5.65;;;;;;;15.63;82.68;101300.59;4988482;28;20022;-62
2023/07/19 04:32:38;;;;;;;9.48;5.00;;;;;;;15.63;82.42;101306.78;4991103;28;20022;-62
2023/07/19 04:35:04;;;;;;;7.07;4.97;;;;;;;15.64;82.35;101302.25;4989854;28;20019;-62
2023/07/19 04:37:29;;;;;;;8.23;5.20;;;;;;;15.66;82.52;101301.03;4989809;28;20420;-62
2023/07/19 04:39:54;;;;;;;9.20;5.25;;;;;;;15.71;82.46;101309.31;4987583;28;20439;-62
2023/07/19 04:42:22;;;;;;;8.07;5.07;;;;;;;15.74;82.41;101314.28;4988325;28;20038;-63
2023/07/19 04:44:47;;;;;;;10.18;5.22;;;;;;;15.76;82.31;101312.25;4986056;28;20030;-62
2023/07/19 04:47:12;;;;;;;9.77;4.85;;;;;;;15.78;82.38;101315.56;4989534;28;20049;-62
2023/07/19 04:49:37;;;;;;;8.68;5.60;;;;;;;15.79;82.15;101313.72;4988907;28;20038;-62
2023/07/19 04:52:03;;;;;;;8.50;6.00;;;;;;;15.81;82.27;101308.97;4988447;28;20025;-62
2023/07/19 04:54:28;;;;;;;8.23;5.47;;;;;;;15.78;82.15;101315.56;4981730;28;20029;-62
2023/07/19 04:56:54;;;;;;;8.90;5.35;;;;;;;15.80;82.72;101313.50;4986698;28;20030;-62
2023/07/19 04:59:19;;;;;;;7.40;5.32;;;;;;;15.81;82.38;101325.06;4988379;28;20030;-62
2023/07/19 05:01:44;;;;;;;10.20;5.63;;;;;;;15.84;82.89;101324.66;4989053;28;20435;-62
2023/07/19 05:04:10;;;;;;;10.07;6.03;;;;;;;15.86;82.67;101322.63;4987193;28;20030;-62
2023/07/19 05:06:35;;;;;;;11.75;5.70;;;;;;;15.90;82.96;101331.09;4989260;28;20026;-63
2023/07/19 05:09:00;;;;;;;11.85;5.88;;;;;;;15.89;82.94;101327.59;4987708;28;20014;-62
2023/07/19 05:11:26;;;;;;;10.27;6.10;;;;;;;15.88;82.97;101328.59;4987151;28;20471;-62
2023/07/19 05:13:51;;;;;;;9.77;6.78;;;;;;;15.89;83.49;101321.41;4986777;28;20029;-62
2023/07/19 05:16:17;;;;;;;10.68;6.10;;;;;;;15.92;83.17;101321.03;4988785;28;20085;-63
2023/07/19 05:18:42;;;;;;;11.82;6.65;;;;;;;15.97;83.19;101321.28;4986524;28;20037;-62
2023/07/19 05:21:08;;;;;;;10.65;7.07;;;;;;;16.02;82.77;101318.84;4988894;28;20050;-62
2023/07/19 05:23:33;;;;;;;8.43;6.65;;;;;;;16.10;82.85;101330.22;4985307;28;20042;-63
2023/07/19 05:25:58;;;;;;;12.05;7.15;;;;;;;16.15;82.57;101326.13;4982975;28;20028;-62
2023/07/19 05:28:24;;;;;;;11.15;6.68;;;;;;;16.19;82.61;101320.22;4980890;28;20029;-62
2023/07/19 05:30:49;;;;;;;10.75;6.90;;;;;;;16.22;82.46;101317.16;4989045;28;20030;-62
2023/07/19 05:33:15;;;;;;;12.32;7.22;;;;;;;16.28;82.66;101316.34;4991470;28;20105;-62
2023/07/19 05:35:41;;;;;;;14.50;7.93;;;;;;;16.34;82.74;101322.78;4984273;28;20488;-62
2023/07/19 05:38:06;;;;;;;12.05;7.57;;;;;;;16.39;82.53;101321.16;4987760;28;20084;-61
2023/07/19 05:40:31;;;;;;;12.95;7.57;;;;;;;16.46;82.40;101323.03;4988761;28;20411;-62
2023/07/19 05:42:57;;;;;;;13.15;7.35;;;;;;;16.50;82.50;101310.94;4987315;28;20041;-62
2023/07/19 05:45:22;;;;;;;13.68;7.25;;;;;;;16.56;82.40;101308.28;4986167;28;20036;-62
2023/07/19 05:47:47;;;;;;;13.02;7.47;;;;;;;16.65;82.03;101308.94;4987876;28;20026;-62
2023/07/19 05:50:13;;;;;;;12.30;7.22;;;;;;;16.72;81.72;101313.31;4988653;28;20210;-62
2023/07/19 05:52:39;;;;;;;12.00;7.05;;;;;;;16.79;81.27;101317.91;4984319;28;20026;-63
2023/07/19 05:55:05;;;;;;;10.75;7.07;;;;;;;16.84;80.76;101320.81;4980898;28;20022;-62
2023/07/19 05:57:31;;;;;;;11.15;7.35;;;;;;;16.90;80.67;101315.47;4980075;28;20049;-62
2023/07/19 06:00:02;;;;;;;16.20;7.25;;;;;;;16.99;80.80;101316.94;4988151;28;20022;-62
2023/07/19 06:02:27;;;;;;;12.00;6.95;;;;;;;17.01;80.58;101320.25;4986063;28;20030;-63
2023/07/19 06:04:52;;;;;;;13.18;7.20;;;;;;;17.07;80.51;101325.88;4987586;28;20118;-63
2023/07/19 06:07:18;;;;;;;14.20;7.03;;;;;;;17.09;80.19;101321.13;4986160;28;20026;-62
2023/07/19 06:09:43;;;;;;;14.00;7.43;;;;;;;17.15;79.50;101315.75;4987528;28;20018;-63
2023/07/19 06:12:08;;;;;;;10.05;6.90;;;;;;;17.19;79.81;101317.00;4988187;28;20020;-62
2023/07/19 06:14:34;;;;;;;10.23;7.07;;;;;;;17.26;79.04;101314.34;4988045;28;20481;-62
2023/07/19 06:16:59;;;;;;;12.05;7.07;;;;;;;17.35;79.30;101321.19;4985198;28;20061;-63
2023/07/19 06:19:25;;;;;;;13.32;7.13;;;;;;;17.40;78.46;101320.59;4988010;28;20384;-63
2023/07/19 06:21:51;;;;;;;14.45;7.22;;;;;;;17.41;78.09;101315.00;4983541;28;20026;-62
2023/07/19 06:24:16;;;;;;;12.98;7.22;;;;;;;17.49;78.23;101319.34;4987714;28;20038;-62
2023/07/19 06:26:41;;;;;;;15.50;7.50;;;;;;;17.54;78.04;101315.00;4985099;28;21818;-63
2023/07/19 06:29:06;;;;;;;10.70;7.15;;;;;;;17.58;77.69;101321.63;4978823;28;20056;-62
2023/07/19 06:31:32;;;;;;;11.05;7.15;;;;;;;17.64;77.43;101318.16;4987370;28;20042;-62
2023/07/19 06:33:57;;;;;;;11.88;7.20;;;;;;;17.71;77.18;101309.28;4987909;28;20549;-63
2023/07/19 06:36:24;;;;;;;10.18;6.78;;;;;;;17.77;77.14;101308.47;4986404;28;20478;-62
2023/07/19 06:38:49;;;;;;;15.00;7.20;;;;;;;17.83;76.57;101311.13;4986551;28;20100;-62
2023/07/19 06:41:14;;;;;;;13.60;6.82;;;;;;;17.86;76.29;101310.72;4986544;28;20030;-63
2023/07/19 06:43:40;;;;;;;12.77;6.57;;;;;;;17.86;75.65;101315.28;4984990;28;20056;-62
2023/07/19 06:46:05;;;;;;;13.15;7.05;;;;;;;17.93;75.51;101322.31;4981043;28;20026;-63
2023/07/19 06:48:30;;;;;;;12.00;6.63;;;;;;;18.05;75.68;101316.31;4985989;28;20057;-62
2023/07/19 06:50:56;;;;;;;10.80;6.97;;;;;;;18.12;74.76;101309.88;4986700;28;20018;-63
2023/07/19 06:53:22;;;;;;;11.82;6.07;;;;;;;18.20;74.26;101311.50;4987411;28;20042;-62
2023/07/19 06:55:47;;;;;;;12.40;6.28;;;;;;;18.31;74.04;101321.66;4980174;28;20035;-62
2023/07/19 06:58:12;;;;;;;12.93;5.93;;;;;;;18.40;73.63;101314.19;4984545;28;20050;-62
2023/07/19 07:00:38;;;;;;;12.52;6.22;;;;;;;18.50;73.25;101326.19;4984029;28;20031;-62
2023/07/19 07:03:03;;;;;;;12.18;6.13;;;;;;;18.67;73.56;101323.88;4983422;28;20073;-63
2023/07/19 07:05:29;;;;;;;11.18;6.05;;;;;;;18.78;72.94;101323.19;4981744;28;20041;-63
2023/07/19 07:07:54;;;;;;;14.65;5.85;;;;;;;18.85;72.60;101326.72;4985090;28;20615;-63
2023/07/19 07:10:19;;;;;;;12.68;5.53;;;;;;;18.88;71.96;101328.97;4984910;28;20121;-63
2023/07/19 07:12:45;;;;;;;13.23;5.75;;;;;;;18.89;71.80;101321.72;4985444;28;20023;-62
2023/07/19 07:15:10;;;;;;;9.93;5.60;;;;;;;18.91;71.17;101327.72;4984420;28;20105;-62
2023/07/19 07:17:38;;;;;;;10.77;5.93;;;;;;;18.87;71.63;101330.00;4984962;28;20105;-63
2023/07/19 07:20:06;;;;;;;13.40;5.43;;;;;;;18.84;71.37;101325.06;4987129;28;20041;-63
2023/07/19 07:22:31;;;;;;;13.00;5.50;;;;;;;18.84;71.38;101327.75;4988007;28;20407;-62
2023/07/19 07:24:57;;;;;;;10.82;4.95;;;;;;;18.83;71.42;101333.34;4986829;28;20028;-63
2023/07/19 07:27:22;;;;;;;10.07;5.00;;;;;;;18.80;70.97;101323.84;4987503;28;20050;-63
2023/07/19 07:29:47;;;;;;;10.85;4.97;;;;;;;18.76;70.54;101322.56;4979264;28;20027;-62
2023/07/19 07:32:12;;;;;;;11.25;5.22;;;;;;;18.75;70.83;101318.25;4980235;28;20026;-63
2023/07/19 07:34:38;;;;;;;12.27;4.85;;;;;;;18.75;70.80;101320.94;4985073;28;20030;-63
2023/07/19 07:37:04;;;;;;;11.20;4.75;;;;;;;18.80;70.87;101323.00;4987352;28;20030;-62
2023/07/19 07:39:30;;;;;;;12.70;4.63;;;;;;;18.83;70.96;101319.88;4984302;28;20560;-63
2023/07/19 07:41:55;;;;;;;9.77;4.38;;;;;;;18.88;71.05;101330.84;4991615;28;20023;-63
2023/07/19 07:44:20;;;;;;;11.77;5.35;;;;;;;18.90;70.65;101328.75;4989806;28;20745;-63
2023/07/19 07:46:46;;;;;;;11.70;4.97;;;;;;;18.87;70.85;101313.88;4990894;28;20018;-63
2023/07/19 07:49:12;;;;;;;14.88;4.88;;;;;;;18.97;71.16;101317.94;4990369;28;20050;-62
2023/07/19 07:51:37;;;;;;;11.73;5.20;;;;;;;19.08;70.86;101319.97;4990810;28;20022;-62
2023/07/19 07:54:03;;;;;;;16.60;4.53;;;;;;;19.15;70.49;101316.22;4990530;28;20069;-63
2023/07/19 07:56:28;;;;;;;11.77;5.15;;;;;;;19.21;70.47;101319.09;4984223;28;20027;-62
2023/07/19 07:58:53;;;;;;;11.07;5.05;;;;;;;19.28;70.43;101314.47;4986229;28;20027;-63
2023/07/19 08:01:18;;;;;;;11.40;4.60;;;;;;;19.28;69.37;101319.84;4988954;28;20029;-63
2023/07/19 08:03:44;;;;;;;9.30;4.15;;;;;;;19.27;69.12;101313.66;4983565;28;20026;-63
2023/07/19 08:06:09;;;;;;;11.32;4.57;;;;;;;19.29;68.87;101316.94;4990895;28;20014;-62
2023/07/19 08:08:34;;;;;;;8.52;3.95;;;;;;;19.29;68.83;101311.56;4989956;28;20101;-63
2023/07/19 08:11:04;;;;;;;9.20;4.30;;;;;;;19.32;68.74;101311.13;4991341;28;20365;-63
2023/07/19 08:13:29;;;;;;;10.20;4.40;;;;;;;19.37;68.91;101307.78;4989446;28;20506;-63
2023/07/19 08:15:54;;;;;;;9.68;4.50;;;;;;;19.43;68.79;101302.38;4987282;28;20046;-63
2023/07/19 08:18:19;;;;;;;9.95;4.40;;;;;;;19.48;68.79;101291.75;4989292;28;20026;-63
2023/07/19 08:20:45;;;;;;;10.35;4.28;;;;;;;19.60;68.73;101300.00;4990662;28;20030;-63
2023/07/19 08:23:10;;;;;;;9.65;4.22;;;;;;;19.69;68.34;101292.47;4987898;28;20492;-63
2023/07/19 08:25:35;;;;;;;10.88;4.10;;;;;;;19.74;67.51;101295.34;4990776;28;20647;-63
2023/07/19 08:28:00;;;;;;;10.57;4.20;;;;;;;19.85;67.78;101302.69;4988491;28;20026;-63
2023/07/19 08:30:27;;;;;;;11.02;5.05;;;;;;;19.93;67.98;101291.63;4979944;28;20034;-63
2023/07/19 08:32:52;;;;;;;8.93;4.75;;;;;;;19.96;68.04;101283.13;4988992;28;20487;-63
2023/07/19 08:35:18;;;;;;;11.23;4.50;;;;;;;19.94;67.80;101281.66;4982461;28;20027;-63
2023/07/19 08:37:44;;;;;;;10.18;4.30;;;;;;;19.85;67.50;101294.59;4984272;28;20023;-63
2023/07/19 08:40:12;;;;;;;10.10;4.63;;;;;;;19.80;67.66;101297.97;4991086;28;20029;-63
2023/07/19 08:42:38;;;;;;;9.45;4.60;;;;;;;19.80;67.75;101294.44;4988810;28;20101;-62
2023/07/19 08:45:05;;;;;;;12.70;4.40;;;;;;;19.78;67.66;101294.66;4988970;28;20149;-62
2023/07/19 08:47:32;;;;;;;10.25;4.35;;;;;;;19.93;68.06;101290.81;4990145;28;20056;-62
2023/07/19 08:49:58;;;;;;;10.20;3.30;;;;;;;20.05;66.87;101287.19;4989370;28;20415;-62
2023/07/19 08:52:26;;;;;;;9.98;3.40;;;;;;;20.30;66.95;101297.09;4990499;28;20026;-61
2023/07/19 08:54:52;;;;;;;8.47;3.17;;;;;;;20.52;66.47;101294.78;4989056;28;21199;-62
2023/07/19 08:57:17;;;;;;;10.57;3.70;;;;;;;20.70;65.68;101290.22;4989145;28;20041;-62
2023/07/19 08:59:42;;;;;;;9.57;3.45;;;;;;;20.75;65.41;101296.81;4989253;28;20578;-61
2023/07/19 09:02:07;;;;;;;7.95;3.22;;;;;;;20.83;64.94;101299.22;4983630;28;20022;-62
2023/07/19 09:04:33;;;;;;;10.45;3.40;;;;;;;20.76;64.17;101291.19;4985090;28;20533;-61
2023/07/19 09:07:02;;;;;;;7.32;2.80;;;;;;;20.73;64.10;101297.88;4986860;28;20018;-62
2023/07/19 09:09:27;;;;;;;9.20;3.22;;;;;;;20.64;63.72;101288.44;4989986;28;20097;-62
2023/07/19 09:11:53;;;;;;;7.07;3.10;;;;;;;20.66;64.33;101291.72;4988533;28;20411;-62
2023/07/19 09:14:18;;;;;;;5.57;2.50;;;;;;;20.69;64.15;101296.66;4981206;28;20030;-61
2023/07/19 09:16:46;;;;;;;7.05;2.60;;;;;;;20.68;63.88;101295.03;4983322;28;20030;-61
2023/07/19 09:19:11;;;;;;;6.53;2.17;;;;;;;20.66;63.83;101307.09;4981019;28;20483;-61
2023/07/19 09:21:45;;;;;;;4.80;2.10;;;;;;;20.55;63.81;101302.47;4985997;28;20030;-62
2023/07/19 09:24:11;;;;;;;7.80;2.97;;;;;;;20.48;64.17;101305.22;4984471;28;20029;-62
2023/07/19 09:26:56;;;;;;;5.88;2.58;;;;;;;20.28;64.76;101302.72;4985719;28;20018;-61
2023/07/19 09:29:22;;;;;;;7.35;2.40;;;;;;;20.22;65.24;101300.88;4983643;28;20065;-62
2023/07/19 09:31:53;;;;;;;7.15;2.45;;;;;;;20.22;65.96;101306.28;4983749;28;20030;-62
2023/07/19 09:34:29;;;;;;;6.95;2.53;;;;;;;20.22;65.70;101300.88;4984637;28;20193;-61
2023/07/19 09:36:54;;;;;;;7.38;2.40;;;;;;;20.27;65.66;101300.25;4983118;28;20050;-61
2023/07/19 09:39:22;;;;;;;8.48;2.38;;;;;;;20.34;66.03;101309.09;4987294;28;20495;-60
2023/07/19 09:41:47;;;;;;;9.02;2.40;;;;;;;20.42;65.89;101298.03;4983384;28;20045;-61
2023/07/19 09:44:17;;;;;;;6.35;2.25;;;;;;;20.50;65.05;101297.72;4985309;28;20040;-61
2023/07/19 09:46:44;;;;;;;9.10;2.20;;;;;;;20.67;64.42;101293.38;4987889;28;20284;-62
2023/07/19 09:49:10;;;;;;;10.23;2.50;;;;;;;20.79;64.36;101292.59;4987666;28;20037;-62
2023/07/19 09:51:38;;;;;;;4.38;2.25;;;;;;;20.95;63.79;101295.53;4984920;28;20504;-62
2023/07/19 09:54:11;;;;;;;7.13;2.30;;;;;;;20.99;62.98;101299.41;4984424;28;20157;-62
2023/07/19 09:56:38;;;;;;;8.20;2.30;;;;;;;21.04;62.37;101299.53;4982168;28;20142;-61
2023/07/19 09:59:06;;;;;;;5.60;2.20;;;;;;;21.30;62.54;101297.56;4987836;28;20026;-62
2023/07/19 10:01:33;;;;;;;6.20;2.65;;;;;;;21.62;62.21;101292.69;4983680;28;20030;-62
2023/07/19 10:03:58;;;;;;;5.80;2.15;;;;;;;21.73;60.92;101302.72;4987864;28;20036;-61
2023/07/19 10:06:30;;;;;;;6.35;2.15;;;;;;;21.70;59.43;101294.25;4987181;28;20483;-61
2023/07/19 10:09:34;;;;;;;4.25;1.90;;;;;;;21.83;59.15;101292.16;4984178;28;20030;-61
2023/07/19 10:12:01;;;;;;;6.97;2.00;;;;;;;21.81;57.37;101299.66;4981517;28;20030;-62
2023/07/19 10:14:27;;;;;;;7.50;2.20;;;;;;;21.83;57.40;101294.03;4984783;28;20034;-61
2023/07/19 10:16:59;;;;;;;8.80;2.22;;;;;;;21.82;56.57;101295.09;4985743;28;20117;-62
2023/07/19 10:19:25;;;;;;;7.05;2.40;;;;;;;21.82;56.62;101304.03;4983327;28;20034;-61
2023/07/19 10:22:07;;;;;;;4.85;2.20;;;;;;;21.83;57.07;101302.97;4984075;28;20030;-61
2023/07/19 10:24:37;;;;;;;4.82;1.88;;;;;;;21.98;56.23;101294.41;4982179;28;20034;-61
2023/07/19 10:27:05;;;;;;;6.97;1.80;;;;;;;22.28;56.17;101294.31;4981063;28;20033;-61
2023/07/19 10:29:45;;;;;;;3.88;2.00;;;;;;;22.60;55.51;101294.72;4982104;28;20078;-62
2023/07/19 10:32:11;;;;;;;4.30;2.10;;;;;;;22.80;54.94;101294.28;4985971;28;20030;-62
2023/07/19 10:34:37;;;;;;;5.53;1.95;;;;;;;22.97;53.80;101287.09;4987449;28;20057;-62
2023/07/19 10:37:06;;;;;;;4.25;1.92;;;;;;;22.96;53.17;101292.75;4984359;28;20703;-62
2023/07/19 10:39:32;;;;;;;5.20;2.00;;;;;;;22.82;52.97;101295.72;4985315;28;20023;-62
2023/07/19 10:41:58;;;;;;;6.57;1.98;;;;;;;22.71;52.41;101303.88;4980495;28;20030;-62
2023/07/19 10:44:27;;;;;;;4.88;1.77;;;;;;;22.54;52.57;101290.22;4987678;28;20514;-62
2023/07/19 10:46:54;;;;;;;5.65;2.17;;;;;;;22.46;53.62;101296.03;4987514;28;20022;-62
2023/07/19 10:49:22;;;;;;;4.57;1.92;;;;;;;22.48;54.05;101288.50;4985255;28;20093;-61
2023/07/19 10:51:53;;;;;;;7.43;2.00;;;;;;;22.56;53.89;101293.56;4984493;28;20034;-62
2023/07/19 10:54:18;;;;;;;5.28;1.92;;;;;;;22.64;54.16;101286.94;4981253;28;20030;-63
2023/07/19 10:56:43;;;;;;;2.88;1.90;;;;;;;22.69;53.96;101289.75;4983587;28;20533;-62
2023/07/19 10:59:10;;;;;;;4.97;1.90;;;;;;;22.60;53.64;101296.59;4984233;28;20029;-62
2023/07/19 11:01:35;;;;;;;5.50;1.85;;;;;;;22.45;54.01;101286.25;4988489;28;20025;-62
2023/07/19 11:04:02;;;;;;;7.10;2.50;;;;;;;22.36;54.36;101290.41;4987697;28;20026;-62
2023/07/19 11:06:28;;;;;;;3.72;2.17;;;;;;;22.21;54.24;101289.00;4988283;28;20377;-62
2023/07/19 11:09:02;;;;;;;4.47;2.08;;;;;;;22.09;54.45;101292.78;4988257;28;20036;-62
2023/07/19 11:11:27;;;;;;;8.75;2.13;;;;;;;21.96;54.74;101301.91;4983063;28;20844;-61
2023/07/19 11:13:52;;;;;;;8.98;2.15;;;;;;;21.88;55.03;101294.13;4990698;28;20607;-62
2023/07/19 11:16:18;;;;;;;8.02;1.95;;;;;;;21.84;54.87;101296.50;4990544;28;20495;-62